Time;durP1;ratioP1;P1;durP2;ratioP2;P2;SDS_P1;SDS_P2;PMS_P1;PMS_P2;Temp;Humidity;BMP_temperature;BMP_pressure;BME280_temperature;BME280_humidity;BME280_pressure;Samples;Min_cycle;Max_cycle;Signal;HPM_P1;HPM_P2
2021/09/09 00:00:05;;;;;;;18.67;10.40;;;;;;;8.55;99.33;93914.28;1810585;77;20983;-90
2021/09/09 00:02:33;;;;;;;18.05;9.13;;;;;;;8.43;98.90;93914.53;1849989;75;21006;-90
2021/09/09 00:05:00;;;;;;;47.08;10.23;;;;;;;8.33;99.43;93908.36;1851530;75;21100;-89
2021/09/09 00:07:28;;;;;;;17.37;9.40;;;;;;;8.26;99.86;93916.60;1871848;74;21034;-89
2021/09/09 00:09:56;;;;;;;12.73;8.53;;;;;;;8.21;100.00;93910.73;1844769;75;21305;-89
2021/09/09 00:12:25;;;;;;;18.05;9.23;;;;;;;8.20;100.00;93906.48;1860573;75;20991;-89
2021/09/09 00:14:54;;;;;;;25.82;9.08;;;;;;;8.21;100.00;93911.52;1886742;74;21595;-90
2021/09/09 00:17:23;;;;;;;15.63;7.83;;;;;;;8.24;100.00;93911.36;1801464;76;20986;-87
2021/09/09 00:19:51;;;;;;;10.35;8.15;;;;;;;8.25;100.00;93910.20;1860033;74;21552;-89
2021/09/09 00:22:18;;;;;;;10.53;6.42;;;;;;;8.19;100.00;93911.67;1866772;74;21083;-88
2021/09/09 00:24:45;;;;;;;11.05;8.33;;;;;;;8.10;100.00;93905.18;1818567;76;21048;-90
2021/09/09 00:27:12;;;;;;;11.93;8.05;;;;;;;8.07;100.00;93903.78;1888228;74;21024;-89
2021/09/09 00:29:39;;;;;;;11.95;8.20;;;;;;;8.07;100.00;93899.14;1858718;75;21041;-89
2021/09/09 00:32:07;;;;;;;12.58;7.92;;;;;;;8.08;100.00;93903.40;1858035;75;21827;-89
2021/09/09 00:34:33;;;;;;;11.48;7.65;;;;;;;8.10;100.00;93898.98;1864452;75;21021;-91
2021/09/09 00:37:00;;;;;;;11.93;7.75;;;;;;;8.09;100.00;93898.20;1820890;77;21248;-89
2021/09/09 00:39:27;;;;;;;11.00;7.60;;;;;;;8.07;100.00;93896.42;1821996;76;21030;-90
2021/09/09 00:41:53;;;;;;;11.40;7.97;;;;;;;8.04;100.00;93896.58;1845483;75;20994;-90
2021/09/09 00:44:23;;;;;;;11.50;6.87;;;;;;;8.04;100.00;93894.45;1859337;74;21552;-90
2021/09/09 00:47:05;;;;;;;12.95;8.25;;;;;;;8.04;100.00;93889.81;1851110;75;20999;-89
2021/09/09 00:49:33;;;;;;;11.20;8.25;;;;;;;8.05;100.00;93886.55;1861767;75;21085;-87
2021/09/09 00:52:00;;;;;;;10.50;8.38;;;;;;;8.06;100.00;93890.03;1877919;74;21053;-90
2021/09/09 00:54:26;;;;;;;11.50;9.05;;;;;;;8.06;100.00;93884.62;1842253;75;21117;-90
2021/09/09 00:56:53;;;;;;;13.62;9.13;;;;;;;8.06;100.00;93884.05;1863496;75;21062;-90
2021/09/09 00:59:20;;;;;;;11.22;7.83;;;;;;;8.07;100.00;93886.95;1832291;75;21010;-90
2021/09/09 01:01:46;;;;;;;9.33;7.50;;;;;;;8.08;100.00;93889.08;1817900;76;21068;-89
2021/09/09 01:04:14;;;;;;;9.33;6.60;;;;;;;8.08;100.00;93891.78;1829276;76;21174;-90
2021/09/09 01:06:40;;;;;;;12.47;8.45;;;;;;;8.09;100.00;93893.37;1783681;78;21103;-89
2021/09/09 01:09:07;;;;;;;10.05;7.55;;;;;;;8.10;100.00;93888.92;1794546;77;21045;-89
2021/09/09 01:11:33;;;;;;;12.18;8.00;;;;;;;8.12;100.00;93892.61;1795456;77;21077;-90
2021/09/09 01:14:11;;;;;;;11.88;6.87;;;;;;;8.09;100.00;93889.31;1810382;75;21576;-90
2021/09/09 01:16:38;;;;;;;10.80;7.65;;;;;;;8.08;100.00;93889.08;1853880;75;21010;-90
2021/09/09 01:19:06;;;;;;;10.32;6.85;;;;;;;8.03;100.00;93888.25;1860298;75;20970;-90
2021/09/09 01:21:34;;;;;;;7.75;5.87;;;;;;;8.02;100.00;93888.05;1886127;74;20962;-90
2021/09/09 01:24:01;;;;;;;13.30;7.12;;;;;;;7.99;100.00;93887.43;1859066;74;21124;-89
2021/09/09 01:26:30;;;;;;;8.90;6.70;;;;;;;7.97;100.00;93882.97;1855267;75;21519;-89
2021/09/09 01:28:57;;;;;;;10.45;7.92;;;;;;;7.96;100.00;93886.80;1872247;74;21021;-89
2021/09/09 01:31:23;;;;;;;10.25;7.47;;;;;;;7.95;100.00;93881.19;1880843;74;21133;-90
2021/09/09 01:33:56;;;;;;;14.75;7.28;;;;;;;7.96;100.00;93883.31;1810863;77;21669;-90
2021/09/09 01:36:23;;;;;;;9.08;6.90;;;;;;;7.95;100.00;93873.06;1824107;76;21026;-90
2021/09/09 01:38:49;;;;;;;11.50;8.40;;;;;;;7.97;100.00;93874.04;1868454;74;21045;-89
2021/09/09 01:41:16;;;;;;;10.40;8.08;;;;;;;7.96;100.00;93873.27;1828355;76;20989;-90
2021/09/09 01:43:43;;;;;;;8.90;6.87;;;;;;;7.98;100.00;93876.97;1839685;75;21056;-89
2021/09/09 01:46:10;;;;;;;9.10;7.53;;;;;;;7.99;100.00;93871.18;1861484;75;21252;-89
2021/09/09 01:48:36;;;;;;;11.83;6.42;;;;;;;8.01;100.00;93876.22;1847380;75;20982;-89
2021/09/09 01:51:02;;;;;;;10.70;7.30;;;;;;;8.02;100.00;93873.73;1860280;74;21122;-89
2021/09/09 01:53:29;;;;;;;10.00;7.20;;;;;;;8.02;100.00;93875.87;1829811;75;21019;-89
2021/09/09 01:55:55;;;;;;;12.68;6.83;;;;;;;7.99;100.00;93873.89;1830441;74;21045;-89
2021/09/09 01:58:21;;;;;;;10.65;7.12;;;;;;;7.96;100.00;93875.20;1884079;74;21732;-89
2021/09/09 02:00:48;;;;;;;9.35;6.42;;;;;;;7.92;100.00;93874.38;1854570;75;21061;-89
2021/09/09 02:03:14;;;;;;;8.80;6.95;;;;;;;7.91;100.00;93872.81;1878109;74;21500;-89
2021/09/09 02:05:41;;;;;;;27.77;7.95;;;;;;;7.91;100.00;93874.95;1868558;74;21096;-90
2021/09/09 02:08:07;;;;;;;17.17;7.70;;;;;;;7.90;100.00;93876.65;1833531;75;21002;-89
2021/09/09 02:10:35;;;;;;;13.38;6.20;;;;;;;7.87;100.00;93873.34;1802856;76;22222;-88
2021/09/09 02:13:03;;;;;;;18.50;7.03;;;;;;;7.81;100.00;93879.63;1819958;77;21517;-89
2021/09/09 02:15:29;;;;;;;27.00;6.78;;;;;;;7.70;100.00;93881.41;1821322;76;21092;-89
2021/09/09 02:17:56;;;;;;;18.02;6.78;;;;;;;7.60;100.00;93879.33;1892406;75;21542;-91
2021/09/09 02:20:24;;;;;;;30.70;6.67;;;;;;;7.48;100.00;93874.33;1877786;74;20931;-90
2021/09/09 02:22:52;;;;;;;28.17;7.70;;;;;;;7.42;100.00;93876.38;1832543;76;20982;-89
2021/09/09 02:25:19;;;;;;;27.70;7.15;;;;;;;7.36;100.00;93879.95;1803709;77;20998;-88
2021/09/09 02:27:45;;;;;;;14.63;7.17;;;;;;;7.29;100.00;93873.84;1835992;76;21081;-90
2021/09/09 02:30:13;;;;;;;30.72;8.85;;;;;;;7.29;100.00;93873.06;1822786;76;21022;-88
2021/09/09 02:32:40;;;;;;;10.95;6.05;;;;;;;7.34;100.00;93880.90;1832073;75;20983;-89
2021/09/09 02:35:08;;;;;;;11.43;7.33;;;;;;;7.37;100.00;93873.95;1823083;77;21448;-86
2021/09/09 02:37:34;;;;;;;9.08;7.08;;;;;;;7.39;100.00;93874.39;1855399;75;21610;-90
2021/09/09 02:40:01;;;;;;;11.55;6.30;;;;;;;7.44;100.00;93871.37;1894927;74;21040;-90
2021/09/09 02:42:27;;;;;;;13.18;6.70;;;;;;;7.47;100.00;93863.88;1853783;75;20993;-89
2021/09/09 02:44:54;;;;;;;10.43;6.70;;;;;;;7.46;100.00;93863.67;1845292;75;21002;-89
2021/09/09 02:47:21;;;;;;;14.78;6.87;;;;;;;7.48;100.00;93869.49;1832423;75;21067;-90
2021/09/09 02:49:48;;;;;;;9.90;6.62;;;;;;;7.47;100.00;93861.95;1871271;74;21148;-90
2021/09/09 02:52:14;;;;;;;9.78;6.50;;;;;;;7.51;100.00;93864.13;1900511;74;20990;-88
2021/09/09 02:54:41;;;;;;;10.50;6.75;;;;;;;7.53;100.00;93861.86;1892111;74;21017;-89
2021/09/09 02:57:09;;;;;;;7.37;6.08;;;;;;;7.57;100.00;93865.97;1875563;74;21001;-89
2021/09/09 02:59:35;;;;;;;10.80;6.42;;;;;;;7.59;100.00;93866.37;1884504;74;22243;-90
2021/09/09 03:02:03;;;;;;;9.58;5.97;;;;;;;7.60;100.00;93866.59;1860910;74;21022;-89
2021/09/09 03:04:31;;;;;;;12.60;6.58;;;;;;;7.63;100.00;93867.77;1816679;77;21213;-89
2021/09/09 03:06:59;;;;;;;9.40;6.80;;;;;;;7.66;100.00;93864.34;1840987;76;21069;-90
2021/09/09 03:09:25;;;;;;;5.90;5.30;;;;;;;7.64;100.00;93868.78;1870616;74;21042;-90
2021/09/09 03:11:52;;;;;;;9.80;7.08;;;;;;;7.63;100.00;93871.26;1859343;75;21482;-90
2021/09/09 03:14:19;;;;;;;8.45;5.92;;;;;;;7.61;100.00;93864.67;1852428;75;21088;-89
2021/09/09 03:16:46;;;;;;;8.45;6.37;;;;;;;7.60;100.00;93861.19;1843352;75;21051;-89
2021/09/09 03:19:13;;;;;;;15.20;6.90;;;;;;;7.60;100.00;93869.85;1820247;77;20990;-89
2021/09/09 03:21:39;;;;;;;13.35;7.37;;;;;;;7.57;100.00;93869.25;1893137;74;21922;-89
2021/09/09 03:24:06;;;;;;;8.08;6.40;;;;;;;7.54;100.00;93867.47;1851811;74;21678;-91
2021/09/09 03:26:42;;;;;;;15.68;6.45;;;;;;;7.53;100.00;93863.78;1805104;77;21538;-90
2021/09/09 03:29:09;;;;;;;13.28;6.83;;;;;;;7.54;100.00;93868.05;1812887;77;21667;-90
2021/09/09 03:31:37;;;;;;;10.48;5.80;;;;;;;7.55;100.00;93877.14;1804334;77;21043;-90
2021/09/09 03:34:03;;;;;;;13.45;6.10;;;;;;;7.51;100.00;93872.25;1819688;76;21138;-89
2021/09/09 03:36:29;;;;;;;9.30;5.97;;;;;;;7.49;100.00;93872.42;1795052;77;21066;-90
2021/09/09 03:38:56;;;;;;;7.70;5.50;;;;;;;7.51;100.00;93879.02;1843856;75;21027;-90
2021/09/09 03:41:22;;;;;;;11.68;6.60;;;;;;;7.54;100.00;93880.22;1867920;74;21018;-90
2021/09/09 03:43:48;;;;;;;17.82;6.62;;;;;;;7.52;100.00;93877.89;1860542;75;21058;-90
2021/09/09 03:46:15;;;;;;;13.50;6.90;;;;;;;7.49;100.00;93874.55;1882788;75;21083;-90
2021/09/09 03:48:42;;;;;;;15.50;6.42;;;;;;;7.49;100.00;93879.19;1878226;74;21077;-91
2021/09/09 03:51:09;;;;;;;12.20;6.62;;;;;;;7.50;100.00;93880.17;1882721;74;21515;-90
2021/09/09 03:53:36;;;;;;;8.50;6.30;;;;;;;7.51;100.00;93888.48;1854168;76;21025;-90
2021/09/09 03:56:02;;;;;;;10.68;5.47;;;;;;;7.53;100.00;93882.73;1844179;74;20959;-89
2021/09/09 03:58:29;;;;;;;9.55;6.28;;;;;;;7.53;100.00;93880.80;1906062;74;21037;-91
2021/09/09 04:00:55;;;;;;;10.35;5.15;;;;;;;7.53;100.00;93882.16;1836546;74;21072;-91
2021/09/09 04:03:21;;;;;;;8.15;4.78;;;;;;;7.54;100.00;93880.22;1812117;77;21058;-90
2021/09/09 04:05:49;;;;;;;22.73;6.10;;;;;;;7.48;100.00;93885.73;1821206;77;21480;-91
2021/09/09 04:08:17;;;;;;;13.08;5.72;;;;;;;7.42;100.00;93887.97;1811933;77;21085;-91
2021/09/09 04:10:44;;;;;;;9.93;5.62;;;;;;;7.40;100.00;93888.12;1791255;78;21501;-90
2021/09/09 04:13:11;;;;;;;9.50;6.80;;;;;;;7.35;100.00;93883.80;1824487;77;21131;-90
2021/09/09 04:15:39;;;;;;;14.10;6.30;;;;;;;7.33;100.00;93887.43;1828701;77;21022;-91
2021/09/09 04:18:07;;;;;;;17.27;6.60;;;;;;;7.33;100.00;93885.30;1780153;78;21660;-91
2021/09/09 04:20:33;;;;;;;10.98;6.87;;;;;;;7.32;100.00;93883.17;1814852;77;20971;-91
2021/09/09 04:23:00;;;;;;;6.97;5.58;;;;;;;7.32;100.00;93889.16;1821873;75;21044;-89
2021/09/09 04:25:26;;;;;;;8.53;6.60;;;;;;;7.35;100.00;93887.86;1898173;74;21056;-90
2021/09/09 04:27:53;;;;;;;11.35;5.90;;;;;;;7.32;100.00;93889.94;1824591;75;21454;-89
2021/09/09 04:30:21;;;;;;;7.25;5.87;;;;;;;7.33;100.00;93884.72;1816981;77;20982;-87
2021/09/09 04:32:47;;;;;;;11.28;5.85;;;;;;;7.33;100.00;93889.36;1871024;74;21043;-89
2021/09/09 04:35:13;;;;;;;5.97;5.37;;;;;;;7.30;100.00;93888.18;1897884;74;20998;-90
2021/09/09 04:37:40;;;;;;;7.78;5.47;;;;;;;7.30;100.00;93888.18;1902992;74;21071;-90
2021/09/09 04:40:08;;;;;;;11.83;6.30;;;;;;;7.28;100.00;93883.11;1869428;75;21074;-90
2021/09/09 04:42:35;;;;;;;7.62;6.30;;;;;;;7.26;100.00;93885.42;1876382;75;20992;-91
2021/09/09 04:45:07;;;;;;;12.18;6.75;;;;;;;7.29;100.00;93886.02;1865407;75;20994;-88
2021/09/09 04:47:36;;;;;;;11.15;7.17;;;;;;;7.34;100.00;93883.60;1857768;75;21481;-88
2021/09/09 04:52:31;;;;;;;7.60;6.08;;;;;;;7.43;100.00;93881.41;1862451;75;21068;-89
2021/09/09 04:54:57;;;;;;;8.28;6.42;;;;;;;7.48;100.00;93882.45;1842893;74;21041;-90
2021/09/09 04:57:24;;;;;;;9.93;5.78;;;;;;;7.52;100.00;93882.50;1796085;77;21025;-91
2021/09/09 04:59:51;;;;;;;7.33;5.62;;;;;;;7.58;100.00;93882.98;1813451;77;21022;-89
2021/09/09 05:02:17;;;;;;;8.28;6.15;;;;;;;7.63;100.00;93888.08;1768620;78;21093;-89
2021/09/09 05:04:44;;;;;;;11.12;6.87;;;;;;;7.67;100.00;93887.55;1843150;77;20998;-91
2021/09/09 05:07:12;;;;;;;11.00;7.65;;;;;;;7.68;100.00;93883.14;1839779;77;21066;-91
2021/09/09 05:09:39;;;;;;;9.90;7.08;;;;;;;7.68;100.00;93885.08;1845966;74;21011;-91
2021/09/09 05:12:07;;;;;;;11.33;7.67;;;;;;;7.69;100.00;93881.21;1859117;74;21615;-90
2021/09/09 05:14:35;;;;;;;7.47;5.72;;;;;;;7.74;100.00;93881.66;1806231;77;21227;-90
2021/09/09 05:17:02;;;;;;;11.85;7.40;;;;;;;7.81;100.00;93885.05;1857788;75;20988;-90
2021/09/09 05:19:29;;;;;;;11.20;6.62;;;;;;;7.84;100.00;93878.13;1836213;75;21501;-91
2021/09/09 05:21:57;;;;;;;15.28;8.50;;;;;;;7.89;100.00;93883.22;1852409;75;21011;-91
2021/09/09 05:24:25;;;;;;;14.75;8.55;;;;;;;7.94;100.00;93876.92;1829466;76;21120;-90
2021/09/09 05:26:53;;;;;;;13.90;7.65;;;;;;;8.00;100.00;93880.86;1833064;76;21045;-91
2021/09/09 05:29:22;;;;;;;10.10;7.15;;;;;;;8.04;100.00;93873.55;1856839;75;21038;-92
2021/09/09 05:31:50;;;;;;;11.08;7.60;;;;;;;8.10;100.00;93874.61;1792331;79;21046;-88
2021/09/09 05:34:16;;;;;;;8.45;6.53;;;;;;;8.14;100.00;93872.14;1836559;75;21045;-90
2021/09/09 05:36:43;;;;;;;9.40;6.90;;;;;;;8.20;100.00;93872.61;1843811;75;21105;-90
2021/09/09 05:39:10;;;;;;;8.78;6.92;;;;;;;8.21;100.00;93870.88;1865059;75;21119;-90
2021/09/09 05:41:38;;;;;;;11.30;7.75;;;;;;;8.25;100.00;93873.05;1891096;74;21017;-90
2021/09/09 05:44:04;;;;;;;7.47;6.33;;;;;;;8.27;100.00;93869.41;1858424;75;21049;-89
2021/09/09 05:46:31;;;;;;;10.55;6.92;;;;;;;8.35;100.00;93872.18;1834717;74;21065;-91
2021/09/09 05:48:59;;;;;;;7.35;6.33;;;;;;;8.39;100.00;93868.41;1823622;76;21014;-91
2021/09/09 05:51:29;;;;;;;11.63;6.67;;;;;;;8.45;100.00;93862.85;1832173;76;21619;-90
2021/09/09 05:53:55;;;;;;;7.50;6.45;;;;;;;8.53;100.00;93865.64;1850190;74;21861;-88
2021/09/09 05:56:22;;;;;;;8.50;6.42;;;;;;;8.58;100.00;93851.78;1891606;74;21083;-90
2021/09/09 05:58:51;;;;;;;8.18;5.95;;;;;;;8.62;100.00;93856.08;1876127;74;21626;-91
2021/09/09 06:01:18;;;;;;;8.38;5.95;;;;;;;8.67;100.00;93854.38;1871618;74;21036;-92
2021/09/09 06:03:45;;;;;;;8.05;6.55;;;;;;;8.69;100.00;93853.44;1877157;74;22043;-89
2021/09/09 06:06:15;;;;;;;9.73;7.35;;;;;;;8.74;100.00;93844.19;1843705;74;21098;-88
2021/09/09 06:08:43;;;;;;;9.18;7.40;;;;;;;8.79;100.00;93849.84;1773645;78;21131;-90
2021/09/09 06:11:09;;;;;;;9.35;7.62;;;;;;;8.86;100.00;93849.91;1795628;78;21038;-89
2021/09/09 06:13:36;;;;;;;13.10;7.62;;;;;;;8.93;100.00;93856.18;1860488;75;21007;-91
2021/09/09 06:16:03;;;;;;;8.53;6.37;;;;;;;9.02;100.00;93848.30;1862551;74;21543;-90
2021/09/09 06:18:32;;;;;;;8.75;6.28;;;;;;;9.10;100.00;93844.49;1843886;75;21058;-88
2021/09/09 06:20:59;;;;;;;7.97;6.62;;;;;;;9.19;100.00;93842.27;1831001;76;21108;-88
2021/09/09 06:23:26;;;;;;;8.13;6.60;;;;;;;9.29;100.00;93836.70;1809662;77;21076;-93
2021/09/09 06:25:54;;;;;;;10.93;7.72;;;;;;;9.37;100.00;93836.98;1891082;74;21072;-88
2021/09/09 06:28:20;;;;;;;9.98;7.03;;;;;;;9.51;100.00;93844.42;1894957;73;21073;-91
2021/09/09 06:30:46;;;;;;;8.60;6.22;;;;;;;9.61;100.00;93839.06;1879414;73;21002;-88
2021/09/09 06:33:13;;;;;;;11.35;6.08;;;;;;;9.77;100.00;93834.69;1874966;74;21749;-91
2021/09/09 06:35:40;;;;;;;7.28;6.10;;;;;;;9.91;100.00;93840.20;1902553;74;21100;-88
2021/09/09 06:38:07;;;;;;;7.20;6.42;;;;;;;10.00;100.00;93834.42;1866700;75;21073;-89
2021/09/09 06:40:33;;;;;;;8.65;6.60;;;;;;;10.15;100.00;93840.13;1883018;73;21071;-90
2021/09/09 06:43:00;;;;;;;7.87;6.35;;;;;;;10.26;100.00;93834.77;1887147;73;22281;-88
2021/09/09 06:45:26;;;;;;;6.85;5.87;;;;;;;10.37;100.00;93834.22;1887115;73;21071;-89
2021/09/09 06:47:53;;;;;;;6.87;6.12;;;;;;;10.56;100.00;93828.26;1876860;74;21081;-88
2021/09/09 06:50:20;;;;;;;7.97;5.92;;;;;;;10.75;100.00;93833.35;1862625;75;21052;-89
2021/09/09 06:52:46;;;;;;;6.92;6.08;;;;;;;10.90;100.00;93838.23;1866816;75;21071;-91
2021/09/09 06:55:13;;;;;;;9.40;5.65;;;;;;;10.97;99.75;93832.80;1861390;75;21082;-89
2021/09/09 06:57:39;;;;;;;7.55;6.72;;;;;;;11.06;98.86;93826.41;1868843;74;21482;-91
2021/09/09 07:00:07;;;;;;;7.70;5.80;;;;;;;11.29;97.93;93833.42;1870156;74;21088;-88
2021/09/09 07:02:33;;;;;;;7.42;5.83;;;;;;;11.65;97.89;93832.80;1866612;75;21492;-89
2021/09/09 07:04:59;;;;;;;7.53;5.90;;;;;;;12.07;95.69;93833.34;1857969;75;21703;-90
2021/09/09 07:07:26;;;;;;;6.47;5.70;;;;;;;12.33;94.08;93834.00;1847601;75;21038;-87
2021/09/09 07:09:52;;;;;;;6.15;5.55;;;;;;;12.48;92.50;93835.49;1810794;77;21085;-89
2021/09/09 07:12:19;;;;;;;7.08;6.03;;;;;;;12.55;91.79;93834.69;1853279;74;21637;-89
2021/09/09 07:14:45;;;;;;;7.65;5.65;;;;;;;12.57;90.72;93829.63;1875303;74;21028;-87
2021/09/09 07:17:15;;;;;;;6.70;6.03;;;;;;;12.55;90.16;93831.38;1843604;76;20996;-89
2021/09/09 07:19:42;;;;;;;7.92;6.30;;;;;;;12.52;90.06;93831.39;1874936;74;21025;-89
2021/09/09 07:22:09;;;;;;;7.67;6.85;;;;;;;12.47;89.98;93833.17;1845532;74;21425;-89
2021/09/09 07:24:36;;;;;;;6.67;5.97;;;;;;;12.47;90.48;93831.81;1801309;76;21026;-89
2021/09/09 07:27:02;;;;;;;9.03;6.60;;;;;;;12.53;91.21;93832.38;1829803;76;21639;-89
2021/09/09 07:29:29;;;;;;;7.58;6.72;;;;;;;12.63;90.54;93832.11;1815575;76;21093;-88
2021/09/09 07:31:55;;;;;;;8.93;7.28;;;;;;;12.69;90.02;93831.89;1834797;75;21040;-90
2021/09/09 07:34:22;;;;;;;7.33;6.42;;;;;;;12.74;90.35;93832.83;1870192;75;20991;-87
2021/09/09 07:36:49;;;;;;;7.75;5.67;;;;;;;12.78;89.58;93826.77;1860115;75;21003;-89
2021/09/09 07:39:15;;;;;;;8.83;6.35;;;;;;;12.78;89.21;93822.67;1818897;75;21120;-89
2021/09/09 07:41:42;;;;;;;8.10;6.05;;;;;;;12.80;89.73;93824.42;1886781;75;21063;-85
2021/09/09 07:44:09;;;;;;;6.60;5.60;;;;;;;12.84;89.72;93824.41;1881544;74;21084;-88
2021/09/09 07:46:36;;;;;;;9.10;5.85;;;;;;;12.88;89.55;93817.74;1854784;74;21576;-91
2021/09/09 07:49:02;;;;;;;7.87;5.97;;;;;;;12.95;89.48;93807.97;1853570;75;21455;-90
2021/09/09 07:51:29;;;;;;;7.72;6.50;;;;;;;13.04;88.85;93811.02;1876935;75;21133;-89
2021/09/09 07:53:55;;;;;;;8.30;5.62;;;;;;;13.12;88.59;93812.51;1832816;76;21116;-90
2021/09/09 07:56:23;;;;;;;7.10;5.87;;;;;;;13.22;88.64;93810.89;1875510;74;21060;-90
2021/09/09 07:58:51;;;;;;;10.08;6.62;;;;;;;13.34;88.32;93807.69;1880769;75;21533;-89
2021/09/09 08:01:19;;;;;;;9.10;6.35;;;;;;;13.48;87.87;93802.11;1853415;75;21067;-89
2021/09/09 08:03:46;;;;;;;9.18;6.75;;;;;;;13.60;87.39;93802.97;1823344;76;21082;-91
2021/09/09 08:06:13;;;;;;;11.53;6.62;;;;;;;13.75;87.61;93804.98;1822357;75;21117;-90
2021/09/09 08:08:41;;;;;;;7.37;6.12;;;;;;;13.89;87.03;93799.19;1887059;74;21041;-90
2021/09/09 08:11:09;;;;;;;8.20;5.83;;;;;;;14.03;85.96;93800.41;1891841;74;21023;-90
2021/09/09 08:13:37;;;;;;;8.08;5.80;;;;;;;14.16;85.80;93800.05;1890230;74;21570;-88
2021/09/09 08:16:06;;;;;;;5.35;4.85;;;;;;;14.32;85.32;93798.88;1889631;74;20960;-89
2021/09/09 08:18:32;;;;;;;6.95;5.28;;;;;;;14.53;83.99;93795.73;1889296;74;21098;-91
2021/09/09 08:20:58;;;;;;;8.25;5.37;;;;;;;14.74;83.55;93793.28;1894486;74;21003;-89
2021/09/09 08:23:25;;;;;;;7.75;5.92;;;;;;;14.94;82.15;93794.78;1893799;74;21084;-87
2021/09/09 08:25:52;;;;;;;6.35;5.47;;;;;;;15.09;81.10;93790.64;1889065;74;21050;-87
2021/09/09 08:28:18;;;;;;;6.53;5.40;;;;;;;15.26;80.45;93789.58;1880200;74;21657;-89
2021/09/09 08:30:45;;;;;;;6.12;5.00;;;;;;;15.43;79.06;93789.72;1882406;74;21286;-88
2021/09/09 08:33:12;;;;;;;5.85;4.87;;;;;;;15.61;80.19;93788.83;1883142;74;21017;-88
2021/09/09 08:35:41;;;;;;;6.15;5.55;;;;;;;15.83;79.55;93782.98;1885010;74;21070;-90
2021/09/09 08:38:07;;;;;;;5.10;4.60;;;;;;;15.99;76.66;93784.45;1856998;74;21025;-91
2021/09/09 08:40:36;;;;;;;8.08;4.90;;;;;;;16.15;74.76;93783.16;1869925;74;21070;-90
2021/09/09 08:43:03;;;;;;;8.15;4.50;;;;;;;16.31;74.68;93780.31;1850230;75;21895;-92
2021/09/09 08:45:30;;;;;;;6.15;4.87;;;;;;;16.46;73.93;93776.84;1828700;75;20976;-90
2021/09/09 08:48:05;;;;;;;5.28;4.60;;;;;;;16.60;73.70;93777.16;1828190;77;21191;-91
2021/09/09 08:50:32;;;;;;;4.97;4.47;;;;;;;16.72;72.99;93773.75;1786660;76;21376;-92
2021/09/09 08:53:00;;;;;;;6.55;4.83;;;;;;;16.87;72.08;93776.22;1871455;74;21048;-91
2021/09/09 08:55:26;;;;;;;6.35;4.95;;;;;;;16.99;71.48;93772.19;1863624;74;21132;-90
2021/09/09 08:57:56;;;;;;;6.53;4.85;;;;;;;17.12;70.29;93772.30;1823866;75;22289;-91
2021/09/09 09:00:23;;;;;;;10.68;4.50;;;;;;;17.24;69.45;93770.25;1860421;75;21065;-89
2021/09/09 09:02:54;;;;;;;6.62;4.45;;;;;;;17.37;67.13;93762.08;1857755;75;21241;-89
2021/09/09 09:05:21;;;;;;;4.53;4.12;;;;;;;17.50;67.42;93765.52;1811844;75;21077;-90
2021/09/09 09:08:04;;;;;;;4.67;4.17;;;;;;;17.60;65.72;93761.14;1802014;77;21591;-90
2021/09/09 09:10:32;;;;;;;4.25;3.85;;;;;;;17.71;63.66;93758.89;1822643;76;21065;-89
2021/09/09 09:13:01;;;;;;;4.78;3.95;;;;;;;17.85;62.58;93752.86;1825423;76;20978;-87
2021/09/09 09:15:31;;;;;;;4.15;3.80;;;;;;;17.92;61.61;93747.17;1843474;76;21065;-90
2021/09/09 09:18:08;;;;;;;6.55;4.12;;;;;;;17.96;61.10;93745.86;1789544;78;21377;-92
2021/09/09 09:20:43;;;;;;;3.77;3.47;;;;;;;18.05;61.81;93752.71;1760020;78;21077;-91
2021/09/09 09:23:14;;;;;;;6.53;4.72;;;;;;;18.13;58.70;93750.73;1782638;77;21093;-89
2021/09/09 09:25:50;;;;;;;6.78;4.08;;;;;;;18.18;58.50;93747.43;1810428;76;21069;-89
2021/09/09 09:28:39;;;;;;;4.42;3.62;;;;;;;18.23;58.59;93745.34;1816180;77;21113;-89
2021/09/09 09:31:28;;;;;;;4.87;4.17;;;;;;;18.28;58.99;93741.47;1812075;77;21050;-90
2021/09/09 09:34:02;;;;;;;4.17;3.50;;;;;;;18.35;58.48;93743.23;1808644;75;21135;-88
2021/09/09 09:36:39;;;;;;;5.03;3.15;;;;;;;18.44;56.35;93733.73;1889914;74;21024;-89
2021/09/09 09:39:13;;;;;;;6.87;3.50;;;;;;;18.50;53.66;93731.97;1822649;77;21105;-89
2021/09/09 09:42:01;;;;;;;4.30;3.90;;;;;;;18.53;54.75;93735.23;1841215;76;20976;-90
2021/09/09 09:44:37;;;;;;;5.60;3.55;;;;;;;18.49;54.88;93728.29;1804805;76;21115;-89
2021/09/09 09:47:12;;;;;;;5.03;3.33;;;;;;;18.47;54.02;93727.36;1832130;75;21058;-86
2021/09/09 09:49:45;;;;;;;4.25;3.27;;;;;;;18.48;53.00;93722.02;1849856;75;21059;-89
2021/09/09 09:52:27;;;;;;;4.35;3.08;;;;;;;18.53;52.56;93720.08;1831655;76;21161;-89
2021/09/09 09:54:56;;;;;;;3.30;3.00;;;;;;;18.58;52.61;93719.56;1844821;75;22175;-90
2021/09/09 09:57:24;;;;;;;4.03;3.60;;;;;;;18.63;53.58;93728.64;1856870;75;21036;-90
2021/09/09 09:59:50;;;;;;;4.12;3.58;;;;;;;18.65;51.98;93719.34;1822352;76;21093;-88
2021/09/09 10:02:19;;;;;;;5.75;3.85;;;;;;;18.71;52.63;93717.45;1868947;75;21038;-89
2021/09/09 10:04:48;;;;;;;4.30;3.22;;;;;;;18.77;51.32;93717.05;1879208;75;21037;-89
2021/09/09 10:07:16;;;;;;;5.92;3.45;;;;;;;18.81;50.56;93710.23;1893900;74;21141;-86
2021/09/09 10:09:43;;;;;;;4.37;3.27;;;;;;;18.87;50.53;93714.58;1782459;78;21652;-88
2021/09/09 10:12:12;;;;;;;3.87;3.58;;;;;;;18.90;49.41;93710.94;1845672;75;21083;-89
2021/09/09 10:14:47;;;;;;;3.60;3.30;;;;;;;18.91;50.14;93703.60;1818413;76;21063;-88
2021/09/09 10:17:19;;;;;;;4.87;3.15;;;;;;;18.93;51.02;93703.94;1813841;75;21001;-89
2021/09/09 10:19:49;;;;;;;3.65;3.02;;;;;;;18.99;50.69;93706.91;1857022;75;21516;-90
2021/09/09 10:22:18;;;;;;;5.92;3.67;;;;;;;19.07;50.59;93704.11;1832701;76;21031;-89
2021/09/09 10:24:47;;;;;;;3.27;2.98;;;;;;;19.10;49.78;93703.20;1834717;76;21630;-89
2021/09/09 10:27:27;;;;;;;3.30;3.00;;;;;;;19.13;49.11;93697.42;1835743;76;21373;-90
2021/09/09 10:30:04;;;;;;;3.55;3.22;;;;;;;19.19;50.37;93697.03;1848993;75;21049;-93
2021/09/09 10:32:35;;;;;;;4.53;3.25;;;;;;;19.23;49.41;93692.79;1824192;76;21036;-89
2021/09/09 10:35:26;;;;;;;3.58;3.27;;;;;;;19.27;49.48;93693.44;1840513;75;20973;-88
2021/09/09 10:37:57;;;;;;;3.75;3.42;;;;;;;19.31;49.42;93695.47;1837731;75;21931;-91
2021/09/09 10:40:37;;;;;;;8.03;3.58;;;;;;;19.34;49.19;93687.08;1795385;76;21273;-88
2021/09/09 10:43:13;;;;;;;3.22;2.92;;;;;;;19.39;49.72;93687.88;1895584;75;21501;-89
2021/09/09 10:45:43;;;;;;;3.42;3.12;;;;;;;19.46;50.48;93680.60;1874413;75;21012;-90
2021/09/09 10:48:16;;;;;;;3.33;3.12;;;;;;;19.49;49.27;93688.75;1888867;75;21047;-89
2021/09/09 10:51:12;;;;;;;3.25;3.05;;;;;;;19.52;48.83;93678.22;1840049;75;21648;-89
2021/09/09 10:53:56;;;;;;;4.60;3.50;;;;;;;19.56;47.94;93678.86;1892545;74;21070;-90
2021/09/09 10:56:36;;;;;;;3.10;2.80;;;;;;;19.59;47.97;93675.19;1879481;74;21403;-91
2021/09/09 10:59:19;;;;;;;4.22;3.33;;;;;;;19.57;47.16;93671.36;1875304;74;21005;-90
2021/09/09 11:01:45;;;;;;;3.77;3.37;;;;;;;19.60;48.57;93673.23;1893111;74;21084;-90
2021/09/09 11:04:35;;;;;;;4.50;3.20;;;;;;;19.65;48.27;93665.78;1859237;75;21508;-89
2021/09/09 11:09:37;;;;;;;4.20;3.20;;;;;;;19.66;47.15;93660.42;1866178;75;20959;-89
2021/09/09 11:12:04;;;;;;;4.53;3.00;;;;;;;19.68;47.38;93654.47;1884513;74;21002;-90
2021/09/09 11:14:32;;;;;;;4.62;3.30;;;;;;;19.72;47.57;93657.88;1879862;74;21052;-89
2021/09/09 11:17:00;;;;;;;3.42;3.02;;;;;;;19.75;48.11;93656.37;1846298;74;21084;-90
2021/09/09 11:19:27;;;;;;;3.12;2.83;;;;;;;19.80;47.71;93652.26;1813183;77;21092;-88
2021/09/09 11:22:02;;;;;;;4.00;2.90;;;;;;;19.84;46.11;93650.14;1808668;77;21007;-89
2021/09/09 11:24:35;;;;;;;5.67;3.25;;;;;;;19.87;46.73;93646.48;1807985;78;21045;-91
2021/09/09 11:27:14;;;;;;;3.12;2.83;;;;;;;19.91;46.92;93646.36;1819879;77;21072;-89
2021/09/09 11:29:40;;;;;;;3.55;3.25;;;;;;;19.92;46.87;93644.52;1825556;74;21178;-90
2021/09/09 11:32:07;;;;;;;4.97;3.10;;;;;;;19.95;46.61;93639.48;1813884;77;21131;-91
2021/09/09 11:34:34;;;;;;;7.50;3.85;;;;;;;19.97;46.57;93637.06;1840311;75;22349;-90
2021/09/09 11:37:03;;;;;;;7.67;6.85;;;;;;;19.98;46.99;93633.69;1875272;75;21568;-90
2021/09/09 11:39:33;;;;;;;5.10;4.60;;;;;;;20.01;46.93;93625.28;1828497;74;21537;-90